sensor_id;sensor_type;location;lat;lon;timestamp;P1;durP1;ratioP1;P2;durP2;ratioP2
30948;SDS011;17637;51.984;21.208;2022-08-19T00:00:58;16.25;;;13.18;;
30948;SDS011;17637;51.984;21.208;2022-08-19T00:06:01;18.92;;;13.32;;
30948;SDS011;17637;51.984;21.208;2022-08-19T00:11:04;15.88;;;13.70;;
30948;SDS011;17637;51.984;21.208;2022-08-19T00:16:14;15.60;;;12.85;;
30948;SDS011;17637;51.984;21.208;2022-08-19T00:21:17;16.70;;;13.10;;
30948;SDS011;17637;51.984;21.208;2022-08-19T00:26:20;15.20;;;13.00;;
30948;SDS011;17637;51.984;21.208;2022-08-19T00:31:25;17.88;;;12.80;;
30948;SDS011;17637;51.984;21.208;2022-08-19T00:36:29;15.10;;;13.45;;
30948;SDS011;17637;51.984;21.208;2022-08-19T00:41:34;14.40;;;12.00;;
30948;SDS011;17637;51.984;21.208;2022-08-19T00:46:40;14.05;;;12.55;;
30948;SDS011;17637;51.984;21.208;2022-08-19T00:51:46;16.02;;;13.30;;
30948;SDS011;17637;51.984;21.208;2022-08-19T00:56:50;17.02;;;13.38;;
30948;SDS011;17637;51.984;21.208;2022-08-19T01:01:57;16.17;;;13.07;;
30948;SDS011;17637;51.984;21.208;2022-08-19T01:07:01;15.30;;;13.27;;
30948;SDS011;17637;51.984;21.208;2022-08-19T01:12:04;19.77;;;14.02;;
30948;SDS011;17637;51.984;21.208;2022-08-19T01:17:09;18.30;;;12.75;;
30948;SDS011;17637;51.984;21.208;2022-08-19T01:22:14;19.02;;;12.98;;
30948;SDS011;17637;51.984;21.208;2022-08-19T01:27:38;15.35;;;13.15;;
30948;SDS011;17637;51.984;21.208;2022-08-19T01:32:44;17.65;;;13.95;;
30948;SDS011;17637;51.984;21.208;2022-08-19T01:37:48;17.58;;;14.63;;
30948;SDS011;17637;51.984;21.208;2022-08-19T01:42:55;21.73;;;14.63;;
30948;SDS011;17637;51.984;21.208;2022-08-19T01:47:58;18.48;;;15.88;;
30948;SDS011;17637;51.984;21.208;2022-08-19T01:53:04;18.33;;;14.57;;
30948;SDS011;17637;51.984;21.208;2022-08-19T01:58:12;17.20;;;15.35;;
30948;SDS011;17637;51.984;21.208;2022-08-19T02:03:16;20.58;;;15.65;;
30948;SDS011;17637;51.984;21.208;2022-08-19T02:08:19;24.67;;;15.85;;
30948;SDS011;17637;51.984;21.208;2022-08-19T02:13:25;19.67;;;15.63;;
30948;SDS011;17637;51.984;21.208;2022-08-19T02:18:29;21.40;;;16.00;;
30948;SDS011;17637;51.984;21.208;2022-08-19T02:23:32;22.20;;;14.93;;
30948;SDS011;17637;51.984;21.208;2022-08-19T02:28:37;20.10;;;15.88;;
30948;SDS011;17637;51.984;21.208;2022-08-19T02:33:39;18.85;;;15.98;;
30948;SDS011;17637;51.984;21.208;2022-08-19T02:38:43;17.10;;;15.23;;
30948;SDS011;17637;51.984;21.208;2022-08-19T02:43:58;18.05;;;16.30;;
30948;SDS011;17637;51.984;21.208;2022-08-19T02:49:23;20.23;;;15.57;;
30948;SDS011;17637;51.984;21.208;2022-08-19T02:54:26;20.30;;;16.10;;
30948;SDS011;17637;51.984;21.208;2022-08-19T02:59:32;21.33;;;17.00;;
30948;SDS011;17637;51.984;21.208;2022-08-19T03:04:35;19.05;;;15.32;;
30948;SDS011;17637;51.984;21.208;2022-08-19T03:09:37;18.60;;;16.38;;
30948;SDS011;17637;51.984;21.208;2022-08-19T03:14:42;18.20;;;14.60;;
30948;SDS011;17637;51.984;21.208;2022-08-19T03:19:45;19.38;;;16.48;;
30948;SDS011;17637;51.984;21.208;2022-08-19T03:24:48;19.20;;;15.95;;
30948;SDS011;17637;51.984;21.208;2022-08-19T03:29:53;21.15;;;17.10;;
30948;SDS011;17637;51.984;21.208;2022-08-19T03:34:57;20.45;;;16.20;;
30948;SDS011;17637;51.984;21.208;2022-08-19T03:40:01;20.40;;;17.42;;
30948;SDS011;17637;51.984;21.208;2022-08-19T03:45:08;19.67;;;16.25;;
30948;SDS011;17637;51.984;21.208;2022-08-19T03:50:12;22.92;;;18.08;;
30948;SDS011;17637;51.984;21.208;2022-08-19T03:55:15;21.98;;;18.15;;
30948;SDS011;17637;51.984;21.208;2022-08-19T04:00:20;22.88;;;18.48;;
30948;SDS011;17637;51.984;21.208;2022-08-19T04:05:23;21.05;;;17.20;;
30948;SDS011;17637;51.984;21.208;2022-08-19T04:10:28;22.20;;;17.08;;
30948;SDS011;17637;51.984;21.208;2022-08-19T04:15:33;21.75;;;18.80;;
30948;SDS011;17637;51.984;21.208;2022-08-19T04:20:45;24.35;;;17.98;;
30948;SDS011;17637;51.984;21.208;2022-08-19T04:25:49;22.83;;;18.33;;
30948;SDS011;17637;51.984;21.208;2022-08-19T04:30:54;25.02;;;18.48;;
30948;SDS011;17637;51.984;21.208;2022-08-19T04:35:57;26.33;;;19.48;;
30948;SDS011;17637;51.984;21.208;2022-08-19T04:41:02;20.20;;;17.98;;
30948;SDS011;17637;51.984;21.208;2022-08-19T04:46:26;18.58;;;16.60;;
30948;SDS011;17637;51.984;21.208;2022-08-19T04:51:41;17.65;;;15.82;;
30948;SDS011;17637;51.984;21.208;2022-08-19T04:56:46;16.88;;;14.90;;
30948;SDS011;17637;51.984;21.208;2022-08-19T05:01:53;18.65;;;16.00;;
30948;SDS011;17637;51.984;21.208;2022-08-19T05:06:56;22.15;;;15.85;;
30948;SDS011;17637;51.984;21.208;2022-08-19T05:12:02;20.40;;;15.75;;
30948;SDS011;17637;51.984;21.208;2022-08-19T05:17:07;19.15;;;15.15;;
30948;SDS011;17637;51.984;21.208;2022-08-19T05:22:29;24.63;;;15.30;;
30948;SDS011;17637;51.984;21.208;2022-08-19T05:27:35;16.48;;;14.30;;
30948;SDS011;17637;51.984;21.208;2022-08-19T05:32:39;17.40;;;13.65;;
30948;SDS011;17637;51.984;21.208;2022-08-19T05:37:42;18.10;;;14.00;;
30948;SDS011;17637;51.984;21.208;2022-08-19T05:42:45;20.92;;;13.18;;
30948;SDS011;17637;51.984;21.208;2022-08-19T05:47:58;15.47;;;13.17;;
30948;SDS011;17637;51.984;21.208;2022-08-19T05:53:01;18.15;;;11.90;;
30948;SDS011;17637;51.984;21.208;2022-08-19T05:58:03;15.75;;;13.18;;
30948;SDS011;17637;51.984;21.208;2022-08-19T06:03:11;15.88;;;12.93;;
30948;SDS011;17637;51.984;21.208;2022-08-19T06:08:14;21.40;;;13.43;;
30948;SDS011;17637;51.984;21.208;2022-08-19T06:13:17;14.57;;;12.98;;
30948;SDS011;17637;51.984;21.208;2022-08-19T06:18:23;15.02;;;12.35;;
30948;SDS011;17637;51.984;21.208;2022-08-19T06:23:26;14.75;;;12.00;;
30948;SDS011;17637;51.984;21.208;2022-08-19T06:28:29;15.10;;;12.65;;
30948;SDS011;17637;51.984;21.208;2022-08-19T06:33:33;12.63;;;11.00;;
30948;SDS011;17637;51.984;21.208;2022-08-19T06:38:37;16.60;;;11.55;;
30948;SDS011;17637;51.984;21.208;2022-08-19T06:43:40;15.57;;;11.77;;
30948;SDS011;17637;51.984;21.208;2022-08-19T06:48:46;17.27;;;11.73;;
30948;SDS011;17637;51.984;21.208;2022-08-19T06:53:51;15.23;;;10.70;;
30948;SDS011;17637;51.984;21.208;2022-08-19T06:58:56;12.65;;;11.20;;
30948;SDS011;17637;51.984;21.208;2022-08-19T07:04:01;16.95;;;10.82;;
30948;SDS011;17637;51.984;21.208;2022-08-19T07:09:04;14.73;;;10.98;;
30948;SDS011;17637;51.984;21.208;2022-08-19T07:14:09;12.50;;;10.68;;
30948;SDS011;17637;51.984;21.208;2022-08-19T07:19:23;21.02;;;11.15;;
30948;SDS011;17637;51.984;21.208;2022-08-19T07:24:31;14.47;;;10.47;;
30948;SDS011;17637;51.984;21.208;2022-08-19T07:29:34;12.80;;;9.35;;
30948;SDS011;17637;51.984;21.208;2022-08-19T07:34:40;12.90;;;9.60;;
30948;SDS011;17637;51.984;21.208;2022-08-19T07:39:44;14.48;;;9.65;;
30948;SDS011;17637;51.984;21.208;2022-08-19T07:44:47;14.73;;;9.63;;
30948;SDS011;17637;51.984;21.208;2022-08-19T07:49:53;12.38;;;9.60;;
30948;SDS011;17637;51.984;21.208;2022-08-19T07:54:56;9.70;;;8.32;;
30948;SDS011;17637;51.984;21.208;2022-08-19T08:00:00;13.00;;;8.70;;
30948;SDS011;17637;51.984;21.208;2022-08-19T08:05:04;11.05;;;8.57;;
30948;SDS011;17637;51.984;21.208;2022-08-19T08:10:26;10.68;;;8.60;;
30948;SDS011;17637;51.984;21.208;2022-08-19T08:15:29;16.35;;;8.30;;
30948;SDS011;17637;51.984;21.208;2022-08-19T08:20:34;12.40;;;8.73;;
30948;SDS011;17637;51.984;21.208;2022-08-19T08:25:37;13.38;;;9.02;;
30948;SDS011;17637;51.984;21.208;2022-08-19T08:30:40;12.82;;;8.85;;
30948;SDS011;17637;51.984;21.208;2022-08-19T08:35:48;14.05;;;8.85;;
30948;SDS011;17637;51.984;21.208;2022-08-19T08:40:52;13.88;;;8.70;;
30948;SDS011;17637;51.984;21.208;2022-08-19T08:46:01;13.15;;;8.68;;
30948;SDS011;17637;51.984;21.208;2022-08-19T08:51:11;11.20;;;8.35;;
30948;SDS011;17637;51.984;21.208;2022-08-19T08:56:21;12.18;;;8.10;;
30948;SDS011;17637;51.984;21.208;2022-08-19T09:01:25;14.05;;;7.68;;
30948;SDS011;17637;51.984;21.208;2022-08-19T09:06:35;11.40;;;7.60;;
30948;SDS011;17637;51.984;21.208;2022-08-19T09:11:48;10.90;;;7.70;;
30948;SDS011;17637;51.984;21.208;2022-08-19T09:16:59;14.85;;;7.45;;
30948;SDS011;17637;51.984;21.208;2022-08-19T09:22:08;13.02;;;7.85;;
30948;SDS011;17637;51.984;21.208;2022-08-19T09:27:11;13.85;;;7.28;;
30948;SDS011;17637;51.984;21.208;2022-08-19T09:32:21;13.38;;;7.40;;
30948;SDS011;17637;51.984;21.208;2022-08-19T09:37:29;11.57;;;7.85;;
30948;SDS011;17637;51.984;21.208;2022-08-19T09:42:34;13.77;;;7.65;;
30948;SDS011;17637;51.984;21.208;2022-08-19T09:47:38;15.10;;;7.45;;
30948;SDS011;17637;51.984;21.208;2022-08-19T09:52:43;14.40;;;8.30;;
30948;SDS011;17637;51.984;21.208;2022-08-19T09:58:00;11.45;;;8.77;;
30948;SDS011;17637;51.984;21.208;2022-08-19T10:03:03;12.40;;;8.68;;
30948;SDS011;17637;51.984;21.208;2022-08-19T10:08:09;11.68;;;8.90;;
30948;SDS011;17637;51.984;21.208;2022-08-19T10:13:16;12.93;;;9.32;;
30948;SDS011;17637;51.984;21.208;2022-08-19T10:18:23;16.38;;;9.68;;
30948;SDS011;17637;51.984;21.208;2022-08-19T10:23:29;13.15;;;9.30;;
30948;SDS011;17637;51.984;21.208;2022-08-19T10:28:36;13.73;;;8.90;;
30948;SDS011;17637;51.984;21.208;2022-08-19T10:33:40;18.00;;;9.57;;
30948;SDS011;17637;51.984;21.208;2022-08-19T10:38:57;10.73;;;8.90;;
30948;SDS011;17637;51.984;21.208;2022-08-19T10:44:04;16.65;;;9.40;;
30948;SDS011;17637;51.984;21.208;2022-08-19T10:49:14;14.05;;;8.57;;
30948;SDS011;17637;51.984;21.208;2022-08-19T10:54:19;13.98;;;8.20;;
30948;SDS011;17637;51.984;21.208;2022-08-19T10:59:34;12.48;;;9.32;;
30948;SDS011;17637;51.984;21.208;2022-08-19T11:04:38;14.48;;;9.23;;
30948;SDS011;17637;51.984;21.208;2022-08-19T11:09:44;18.10;;;9.90;;
30948;SDS011;17637;51.984;21.208;2022-08-19T11:14:48;11.48;;;8.65;;
30948;SDS011;17637;51.984;21.208;2022-08-19T11:19:52;11.93;;;8.23;;
30948;SDS011;17637;51.984;21.208;2022-08-19T11:24:56;14.68;;;8.20;;
30948;SDS011;17637;51.984;21.208;2022-08-19T11:29:59;12.20;;;7.80;;
30948;SDS011;17637;51.984;21.208;2022-08-19T11:35:03;11.40;;;7.35;;
30948;SDS011;17637;51.984;21.208;2022-08-19T11:40:09;12.93;;;7.72;;
30948;SDS011;17637;51.984;21.208;2022-08-19T11:45:13;16.95;;;7.93;;
30948;SDS011;17637;51.984;21.208;2022-08-19T11:50:16;12.02;;;7.65;;
30948;SDS011;17637;51.984;21.208;2022-08-19T11:55:21;10.57;;;7.75;;
30948;SDS011;17637;51.984;21.208;2022-08-19T12:00:24;14.30;;;7.85;;
30948;SDS011;17637;51.984;21.208;2022-08-19T12:05:27;11.15;;;7.45;;
30948;SDS011;17637;51.984;21.208;2022-08-19T12:10:37;14.63;;;7.88;;
30948;SDS011;17637;51.984;21.208;2022-08-19T12:15:40;14.35;;;7.07;;
30948;SDS011;17637;51.984;21.208;2022-08-19T12:20:43;10.52;;;7.28;;
30948;SDS011;17637;51.984;21.208;2022-08-19T12:25:49;11.45;;;6.90;;
30948;SDS011;17637;51.984;21.208;2022-08-19T12:30:55;10.82;;;7.32;;
30948;SDS011;17637;51.984;21.208;2022-08-19T12:36:00;11.85;;;6.97;;
30948;SDS011;17637;51.984;21.208;2022-08-19T12:41:06;12.45;;;7.22;;
30948;SDS011;17637;51.984;21.208;2022-08-19T12:46:12;10.98;;;7.03;;
30948;SDS011;17637;51.984;21.208;2022-08-19T12:51:19;11.80;;;6.57;;
30948;SDS011;17637;51.984;21.208;2022-08-19T12:56:23;9.93;;;7.00;;
30948;SDS011;17637;51.984;21.208;2022-08-19T13:01:26;10.68;;;6.63;;
30948;SDS011;17637;51.984;21.208;2022-08-19T13:06:35;13.75;;;6.70;;
30948;SDS011;17637;51.984;21.208;2022-08-19T13:11:39;8.65;;;6.13;;
30948;SDS011;17637;51.984;21.208;2022-08-19T13:16:42;7.45;;;6.18;;
30948;SDS011;17637;51.984;21.208;2022-08-19T13:21:48;10.73;;;6.10;;
30948;SDS011;17637;51.984;21.208;2022-08-19T13:27:02;9.55;;;6.00;;
30948;SDS011;17637;51.984;21.208;2022-08-19T13:32:05;8.35;;;5.95;;
30948;SDS011;17637;51.984;21.208;2022-08-19T13:37:27;10.43;;;5.90;;
30948;SDS011;17637;51.984;21.208;2022-08-19T13:42:47;8.27;;;6.07;;
30948;SDS011;17637;51.984;21.208;2022-08-19T13:47:53;8.88;;;5.30;;
30948;SDS011;17637;51.984;21.208;2022-08-19T13:53:01;7.63;;;5.25;;
30948;SDS011;17637;51.984;21.208;2022-08-19T13:58:06;6.85;;;5.45;;
30948;SDS011;17637;51.984;21.208;2022-08-19T14:03:09;8.82;;;5.20;;
30948;SDS011;17637;51.984;21.208;2022-08-19T14:08:12;9.43;;;5.53;;
30948;SDS011;17637;51.984;21.208;2022-08-19T14:13:18;12.20;;;5.13;;
30948;SDS011;17637;51.984;21.208;2022-08-19T14:18:23;9.25;;;4.60;;
30948;SDS011;17637;51.984;21.208;2022-08-19T14:23:32;6.00;;;4.68;;
30948;SDS011;17637;51.984;21.208;2022-08-19T14:28:37;8.25;;;4.80;;
30948;SDS011;17637;51.984;21.208;2022-08-19T14:33:41;8.63;;;4.78;;
30948;SDS011;17637;51.984;21.208;2022-08-19T14:38:44;10.88;;;5.25;;
30948;SDS011;17637;51.984;21.208;2022-08-19T14:43:53;10.32;;;4.72;;
30948;SDS011;17637;51.984;21.208;2022-08-19T14:48:57;9.63;;;4.40;;
30948;SDS011;17637;51.984;21.208;2022-08-19T14:54:02;9.85;;;5.00;;
30948;SDS011;17637;51.984;21.208;2022-08-19T14:59:07;8.77;;;4.63;;
30948;SDS011;17637;51.984;21.208;2022-08-19T15:04:11;7.50;;;4.60;;
30948;SDS011;17637;51.984;21.208;2022-08-19T15:09:14;7.32;;;4.63;;
30948;SDS011;17637;51.984;21.208;2022-08-19T15:14:22;14.40;;;5.05;;
30948;SDS011;17637;51.984;21.208;2022-08-19T15:19:25;7.85;;;5.30;;
30948;SDS011;17637;51.984;21.208;2022-08-19T15:24:28;10.07;;;5.07;;
30948;SDS011;17637;51.984;21.208;2022-08-19T15:29:34;13.07;;;4.70;;
30948;SDS011;17637;51.984;21.208;2022-08-19T15:34:38;7.80;;;4.95;;
30948;SDS011;17637;51.984;21.208;2022-08-19T15:39:41;12.52;;;5.22;;
30948;SDS011;17637;51.984;21.208;2022-08-19T15:44:46;9.35;;;4.93;;
30948;SDS011;17637;51.984;21.208;2022-08-19T15:49:49;7.63;;;5.32;;
30948;SDS011;17637;51.984;21.208;2022-08-19T15:54:52;12.32;;;4.88;;
30948;SDS011;17637;51.984;21.208;2022-08-19T15:59:57;8.38;;;5.18;;
30948;SDS011;17637;51.984;21.208;2022-08-19T16:05:19;7.30;;;4.78;;
30948;SDS011;17637;51.984;21.208;2022-08-19T16:10:42;9.25;;;4.82;;
30948;SDS011;17637;51.984;21.208;2022-08-19T16:15:46;9.75;;;5.25;;
30948;SDS011;17637;51.984;21.208;2022-08-19T16:20:49;9.05;;;4.68;;
30948;SDS011;17637;51.984;21.208;2022-08-19T16:25:52;8.20;;;4.93;;
30948;SDS011;17637;51.984;21.208;2022-08-19T16:30:57;16.50;;;5.93;;
30948;SDS011;17637;51.984;21.208;2022-08-19T16:36:00;12.75;;;5.15;;
30948;SDS011;17637;51.984;21.208;2022-08-19T16:41:09;10.80;;;5.47;;
30948;SDS011;17637;51.984;21.208;2022-08-19T16:46:17;11.57;;;5.45;;
30948;SDS011;17637;51.984;21.208;2022-08-19T16:51:21;11.95;;;5.82;;
30948;SDS011;17637;51.984;21.208;2022-08-19T16:56:25;8.40;;;4.80;;
30948;SDS011;17637;51.984;21.208;2022-08-19T17:01:30;9.48;;;5.10;;
30948;SDS011;17637;51.984;21.208;2022-08-19T17:06:33;8.95;;;4.95;;
30948;SDS011;17637;51.984;21.208;2022-08-19T17:11:38;8.95;;;4.95;;
30948;SDS011;17637;51.984;21.208;2022-08-19T17:16:43;8.23;;;5.07;;
30948;SDS011;17637;51.984;21.208;2022-08-19T17:21:46;10.38;;;5.40;;
30948;SDS011;17637;51.984;21.208;2022-08-19T17:26:49;5.97;;;5.05;;
30948;SDS011;17637;51.984;21.208;2022-08-19T17:31:55;10.13;;;5.10;;
30948;SDS011;17637;51.984;21.208;2022-08-19T17:36:58;9.55;;;4.63;;
30948;SDS011;17637;51.984;21.208;2022-08-19T17:42:01;16.55;;;5.07;;
30948;SDS011;17637;51.984;21.208;2022-08-19T17:47:08;11.43;;;5.40;;
30948;SDS011;17637;51.984;21.208;2022-08-19T17:52:11;13.45;;;5.03;;
30948;SDS011;17637;51.984;21.208;2022-08-19T17:57:14;12.73;;;5.03;;
30948;SDS011;17637;51.984;21.208;2022-08-19T18:02:18;7.97;;;4.90;;
30948;SDS011;17637;51.984;21.208;2022-08-19T18:07:23;12.30;;;5.15;;
30948;SDS011;17637;51.984;21.208;2022-08-19T18:12:26;13.82;;;5.97;;
30948;SDS011;17637;51.984;21.208;2022-08-19T18:17:30;11.55;;;4.82;;
30948;SDS011;17637;51.984;21.208;2022-08-19T18:22:36;11.30;;;5.70;;
30948;SDS011;17637;51.984;21.208;2022-08-19T18:27:40;11.98;;;5.85;;
30948;SDS011;17637;51.984;21.208;2022-08-19T18:32:46;6.65;;;5.47;;
30948;SDS011;17637;51.984;21.208;2022-08-19T18:37:50;5.68;;;4.93;;
30948;SDS011;17637;51.984;21.208;2022-08-19T18:42:53;8.82;;;4.85;;
30948;SDS011;17637;51.984;21.208;2022-08-19T18:48:17;8.50;;;5.60;;
30948;SDS011;17637;51.984;21.208;2022-08-19T18:53:39;12.93;;;5.65;;
30948;SDS011;17637;51.984;21.208;2022-08-19T18:58:42;10.35;;;5.10;;
30948;SDS011;17637;51.984;21.208;2022-08-19T19:03:49;11.00;;;5.30;;
30948;SDS011;17637;51.984;21.208;2022-08-19T19:08:54;9.57;;;5.50;;
30948;SDS011;17637;51.984;21.208;2022-08-19T19:13:58;12.57;;;5.28;;
30948;SDS011;17637;51.984;21.208;2022-08-19T19:19:06;8.95;;;5.57;;
30948;SDS011;17637;51.984;21.208;2022-08-19T19:24:17;8.88;;;5.80;;
30948;SDS011;17637;51.984;21.208;2022-08-19T19:29:22;9.57;;;6.00;;
30948;SDS011;17637;51.984;21.208;2022-08-19T19:34:27;11.13;;;6.10;;
30948;SDS011;17637;51.984;21.208;2022-08-19T19:39:31;10.25;;;5.82;;
30948;SDS011;17637;51.984;21.208;2022-08-19T19:44:47;9.55;;;5.35;;
30948;SDS011;17637;51.984;21.208;2022-08-19T19:49:53;9.65;;;5.35;;
30948;SDS011;17637;51.984;21.208;2022-08-19T19:55:16;8.48;;;5.57;;
30948;SDS011;17637;51.984;21.208;2022-08-19T20:00:20;11.02;;;5.85;;
30948;SDS011;17637;51.984;21.208;2022-08-19T20:05:25;9.48;;;5.40;;
30948;SDS011;17637;51.984;21.208;2022-08-19T20:10:28;7.93;;;4.90;;
30948;SDS011;17637;51.984;21.208;2022-08-19T20:15:33;8.52;;;5.20;;
30948;SDS011;17637;51.984;21.208;2022-08-19T20:20:44;10.52;;;6.30;;
30948;SDS011;17637;51.984;21.208;2022-08-19T20:25:51;10.27;;;5.50;;
30948;SDS011;17637;51.984;21.208;2022-08-19T20:30:55;9.52;;;5.65;;
30948;SDS011;17637;51.984;21.208;2022-08-19T20:36:01;7.35;;;5.32;;
30948;SDS011;17637;51.984;21.208;2022-08-19T20:41:05;10.80;;;5.68;;
30948;SDS011;17637;51.984;21.208;2022-08-19T20:46:08;12.30;;;5.13;;
30948;SDS011;17637;51.984;21.208;2022-08-19T20:51:13;12.50;;;5.10;;
30948;SDS011;17637;51.984;21.208;2022-08-19T20:56:16;9.63;;;5.07;;
30948;SDS011;17637;51.984;21.208;2022-08-19T21:01:20;11.32;;;5.53;;
30948;SDS011;17637;51.984;21.208;2022-08-19T21:06:26;10.98;;;5.25;;
30948;SDS011;17637;51.984;21.208;2022-08-19T21:11:30;14.07;;;5.50;;
30948;SDS011;17637;51.984;21.208;2022-08-19T21:16:33;7.40;;;5.22;;
30948;SDS011;17637;51.984;21.208;2022-08-19T21:21:38;11.15;;;5.20;;
30948;SDS011;17637;51.984;21.208;2022-08-19T21:26:41;14.00;;;5.55;;
30948;SDS011;17637;51.984;21.208;2022-08-19T21:31:43;11.43;;;4.95;;
30948;SDS011;17637;51.984;21.208;2022-08-19T21:36:48;9.00;;;4.90;;
30948;SDS011;17637;51.984;21.208;2022-08-19T21:41:51;14.05;;;5.07;;
30948;SDS011;17637;51.984;21.208;2022-08-19T21:46:54;11.93;;;5.07;;
30948;SDS011;17637;51.984;21.208;2022-08-19T21:51:58;16.58;;;5.38;;
30948;SDS011;17637;51.984;21.208;2022-08-19T21:57:03;9.07;;;5.38;;
30948;SDS011;17637;51.984;21.208;2022-08-19T22:02:11;16.05;;;5.00;;
30948;SDS011;17637;51.984;21.208;2022-08-19T22:07:24;8.05;;;5.10;;
30948;SDS011;17637;51.984;21.208;2022-08-19T22:12:28;7.28;;;4.93;;
30948;SDS011;17637;51.984;21.208;2022-08-19T22:17:32;11.40;;;5.10;;
30948;SDS011;17637;51.984;21.208;2022-08-19T22:22:37;9.40;;;5.40;;
30948;SDS011;17637;51.984;21.208;2022-08-19T22:27:46;10.10;;;4.80;;
30948;SDS011;17637;51.984;21.208;2022-08-19T22:32:51;11.27;;;5.28;;
30948;SDS011;17637;51.984;21.208;2022-08-19T22:37:59;13.73;;;5.07;;
30948;SDS011;17637;51.984;21.208;2022-08-19T22:43:04;13.60;;;5.25;;
30948;SDS011;17637;51.984;21.208;2022-08-19T22:48:10;10.68;;;5.32;;
30948;SDS011;17637;51.984;21.208;2022-08-19T22:53:15;11.25;;;5.25;;
30948;SDS011;17637;51.984;21.208;2022-08-19T22:58:18;7.43;;;4.38;;
30948;SDS011;17637;51.984;21.208;2022-08-19T23:03:29;10.52;;;5.30;;
30948;SDS011;17637;51.984;21.208;2022-08-19T23:08:33;12.57;;;5.70;;
30948;SDS011;17637;51.984;21.208;2022-08-19T23:13:39;13.80;;;6.03;;
30948;SDS011;17637;51.984;21.208;2022-08-19T23:18:42;12.05;;;5.63;;
30948;SDS011;17637;51.984;21.208;2022-08-19T23:23:48;9.50;;;5.32;;
30948;SDS011;17637;51.984;21.208;2022-08-19T23:28:51;13.10;;;5.30;;
30948;SDS011;17637;51.984;21.208;2022-08-19T23:34:12;13.40;;;5.63;;
30948;SDS011;17637;51.984;21.208;2022-08-19T23:39:17;19.90;;;6.15;;
30948;SDS011;17637;51.984;21.208;2022-08-19T23:44:20;13.65;;;5.55;;
30948;SDS011;17637;51.984;21.208;2022-08-19T23:49:24;9.95;;;5.60;;
30948;SDS011;17637;51.984;21.208;2022-08-19T23:54:29;15.02;;;6.05;;
30948;SDS011;17637;51.984;21.208;2022-08-19T23:59:44;7.85;;;5.43;;
